< < Back
Terminal Aerodrome Forecast


Current Version              Previous Versions:   1  2  3  4  5  6  7  8  9  

Terminal Aerodrome Forecast

867
FTUS42 KFFC 201100 CCA
TAFCSG
TAF COR
KCSG 201151Z 2012/2112 27003KT 6SM BR FEW010
      TEMPO 2012/2013 5SM BR BKN003
     FM201500 28006KT P6SM SCT025
     FM201800 29008KT P6SM VCSH SCT045
      TEMPO 2020/2024 VRB15G25KT 5SM -TSRA BKN030CB
     FM210200 28003KT P6SM FEW050=



Latest METAR

355
SAUS70 KWBC 201354
MTRCSG
METAR KCSG 201351Z 29004KT 10SM CLR 25/21 A3008 RMK AO2 SLP180
T02500211


USA.gov is the U.S. government's official web portal to all federal, state and local government web resources and services.